createdAt,value
2022-10-24T00:00:58.707Z,100.00
2022-10-24T00:03:30.703Z,100.00
2022-10-24T00:06:02.195Z,100.00
2022-10-24T00:08:33.994Z,100.00
2022-10-24T00:11:05.488Z,100.00
2022-10-24T00:13:37.364Z,100.00
2022-10-24T00:16:08.848Z,100.00
2022-10-24T00:18:40.683Z,100.00
2022-10-24T00:21:12.167Z,100.00
2022-10-24T00:23:44.157Z,100.00
2022-10-24T00:26:17.058Z,100.00
2022-10-24T00:28:48.593Z,100.00
2022-10-24T00:31:20.250Z,100.00
2022-10-24T00:33:51.736Z,100.00
2022-10-24T00:36:23.560Z,100.00
2022-10-24T00:38:55.044Z,100.00
2022-10-24T00:41:27.091Z,100.00
2022-10-24T00:43:58.582Z,100.00
2022-10-24T00:46:30.443Z,100.00
2022-10-24T00:49:01.922Z,100.00
2022-10-24T00:51:33.783Z,100.00
2022-10-24T00:54:05.281Z,100.00
2022-10-24T00:56:37.111Z,100.00
2022-10-24T00:59:08.598Z,100.00
2022-10-24T01:01:40.285Z,100.00
2022-10-24T01:04:11.800Z,100.00
2022-10-24T01:06:43.348Z,100.00
2022-10-24T01:09:14.831Z,100.00
2022-10-24T01:11:46.689Z,100.00
2022-10-24T01:14:18.177Z,100.00
2022-10-24T01:16:50.045Z,100.00
2022-10-24T01:19:21.536Z,100.00
2022-10-24T01:21:53.333Z,100.00
2022-10-24T01:24:24.822Z,100.00
2022-10-24T01:26:56.572Z,100.00
2022-10-24T01:29:28.086Z,100.00
2022-10-24T01:31:59.987Z,100.00
2022-10-24T01:34:31.460Z,100.00
2022-10-24T01:37:03.378Z,100.00
2022-10-24T01:39:34.871Z,100.00
2022-10-24T01:42:06.662Z,100.00
2022-10-24T01:44:38.141Z,100.00
2022-10-24T01:47:09.933Z,100.00
2022-10-24T01:49:41.425Z,100.00
2022-10-24T01:54:49.869Z,100.00
2022-10-24T01:57:21.742Z,100.00
2022-10-24T01:59:53.234Z,100.00
2022-10-24T02:02:25.068Z,100.00
2022-10-24T02:04:56.548Z,100.00
2022-10-24T02:07:28.378Z,100.00
2022-10-24T02:10:04.700Z,100.00
2022-10-24T02:12:36.806Z,100.00
2022-10-24T02:15:08.321Z,100.00
2022-10-24T02:17:40.179Z,100.00
2022-10-24T02:20:11.667Z,100.00
2022-10-24T02:22:43.591Z,100.00
2022-10-24T02:25:15.080Z,100.00
2022-10-24T02:27:47.192Z,100.00
2022-10-24T02:30:19.179Z,100.00
2022-10-24T02:32:50.949Z,100.00
2022-10-24T02:35:22.449Z,100.00
2022-10-24T02:37:54.424Z,100.00
2022-10-24T02:40:26.041Z,100.00
2022-10-24T02:42:58.707Z,100.00
2022-10-24T02:45:30.208Z,100.00
2022-10-24T02:48:02.875Z,100.00
2022-10-24T02:50:34.393Z,100.00
2022-10-24T02:53:06.368Z,100.00
2022-10-24T02:55:38.361Z,100.00
2022-10-24T02:58:10.415Z,100.00
2022-10-24T03:00:42.014Z,100.00
2022-10-24T03:03:13.892Z,100.00
2022-10-24T03:05:45.419Z,100.00
2022-10-24T03:08:17.244Z,100.00
2022-10-24T03:10:48.764Z,100.00
2022-10-24T03:13:20.599Z,100.00
2022-10-24T03:15:52.117Z,100.00
2022-10-24T03:18:23.949Z,100.00
2022-10-24T03:20:55.846Z,100.00
2022-10-24T03:23:28.617Z,100.00
2022-10-24T03:26:00.458Z,100.00
2022-10-24T03:28:31.964Z,100.00
2022-10-24T03:31:03.798Z,100.00
2022-10-24T03:33:35.312Z,100.00
2022-10-24T03:36:07.191Z,100.00
2022-10-24T03:38:38.676Z,100.00
2022-10-24T03:41:10.641Z,100.00
2022-10-24T03:43:42.127Z,100.00
2022-10-24T03:46:13.958Z,100.00
2022-10-24T03:48:45.461Z,100.00
2022-10-24T03:51:17.262Z,100.00
2022-10-24T03:53:48.796Z,100.00
2022-10-24T03:56:20.602Z,100.00
2022-10-24T03:58:52.091Z,100.00
2022-10-24T04:01:24.758Z,100.00
2022-10-24T04:03:56.321Z,100.00
2022-10-24T04:06:30.277Z,100.00
2022-10-24T04:09:04.141Z,100.00
2022-10-24T04:11:35.941Z,100.00
2022-10-24T04:14:09.462Z,100.00
2022-10-24T04:16:41.204Z,100.00
2022-10-24T04:19:12.763Z,100.00
2022-10-24T04:21:44.673Z,100.00
2022-10-24T04:24:16.174Z,100.00
2022-10-24T04:26:48.018Z,100.00
2022-10-24T04:29:19.527Z,100.00
2022-10-24T04:31:51.312Z,100.00
2022-10-24T04:34:22.821Z,100.00
2022-10-24T04:36:54.637Z,100.00
2022-10-24T04:39:26.130Z,100.00
2022-10-24T04:41:57.965Z,100.00
2022-10-24T04:44:29.525Z,100.00
2022-10-24T04:47:01.075Z,100.00
2022-10-24T04:49:32.565Z,100.00
2022-10-24T04:52:04.067Z,100.00
2022-10-24T04:54:35.564Z,100.00
2022-10-24T04:57:07.076Z,100.00
2022-10-24T04:59:38.639Z,100.00
2022-10-24T05:02:10.196Z,100.00
2022-10-24T05:04:41.790Z,100.00
2022-10-24T05:07:13.347Z,100.00
2022-10-24T05:09:44.852Z,100.00
2022-10-24T05:12:16.483Z,100.00
2022-10-24T05:14:48.097Z,100.00
2022-10-24T05:17:20.083Z,100.00
2022-10-24T05:19:51.563Z,100.00
2022-10-24T05:22:24.481Z,100.00
2022-10-24T05:24:55.992Z,100.00
2022-10-24T05:27:27.963Z,100.00
2022-10-24T05:29:59.472Z,100.00
2022-10-24T05:32:32.824Z,100.00
2022-10-24T05:35:06.362Z,100.00
2022-10-24T05:37:38.882Z,100.00
2022-10-24T05:40:10.505Z,100.00
2022-10-24T05:42:42.270Z,100.00
2022-10-24T05:45:14.257Z,100.00
2022-10-24T05:47:46.022Z,100.00
2022-10-24T05:50:18.038Z,100.00
2022-10-24T05:52:49.576Z,100.00
2022-10-24T05:55:21.093Z,100.00
2022-10-24T05:57:52.598Z,100.00
2022-10-24T06:00:24.139Z,100.00
2022-10-24T06:02:55.657Z,100.00
2022-10-24T06:05:27.162Z,100.00
2022-10-24T06:07:58.653Z,100.00
2022-10-24T06:10:30.159Z,100.00
2022-10-24T06:13:01.669Z,100.00
2022-10-24T06:15:33.172Z,100.00
2022-10-24T06:18:04.695Z,100.00
2022-10-24T06:20:36.256Z,100.00
2022-10-24T06:23:07.753Z,100.00
2022-10-24T06:25:39.613Z,100.00
2022-10-24T06:28:12.365Z,100.00
2022-10-24T06:30:44.223Z,100.00
2022-10-24T06:33:15.703Z,100.00
2022-10-24T06:35:47.269Z,100.00
2022-10-24T06:38:18.802Z,100.00
2022-10-24T06:40:50.308Z,100.00
2022-10-24T06:43:21.818Z,100.00
2022-10-24T06:45:53.365Z,100.00
2022-10-24T06:48:24.852Z,100.00
2022-10-24T06:50:56.426Z,100.00
2022-10-24T06:53:27.979Z,100.00
2022-10-24T06:55:59.470Z,100.00
2022-10-24T06:58:30.971Z,100.00
2022-10-24T07:01:02.541Z,100.00
2022-10-24T07:03:34.107Z,100.00
2022-10-24T07:06:05.638Z,100.00
2022-10-24T07:08:37.143Z,100.00
2022-10-24T07:11:08.651Z,100.00
2022-10-24T07:13:40.145Z,100.00
2022-10-24T07:16:11.674Z,100.00
2022-10-24T07:18:43.166Z,100.00
2022-10-24T07:21:14.673Z,100.00
2022-10-24T07:23:46.178Z,100.00
2022-10-24T07:26:17.786Z,100.00
2022-10-24T07:28:53.370Z,100.00
2022-10-24T07:31:24.983Z,100.00
2022-10-24T07:33:56.513Z,100.00
2022-10-24T07:36:28.566Z,100.00
2022-10-24T07:39:00.108Z,100.00
2022-10-24T07:41:31.640Z,100.00
2022-10-24T07:44:03.192Z,100.00
2022-10-24T07:46:35.221Z,100.00
2022-10-24T07:49:06.855Z,100.00
2022-10-24T07:51:38.674Z,100.00
2022-10-24T07:54:10.226Z,100.00
2022-10-24T07:56:41.939Z,100.00
2022-10-24T07:59:23.961Z,100.00
2022-10-24T08:02:04.931Z,100.00
2022-10-24T08:04:36.437Z,100.00
2022-10-24T08:07:13.719Z,100.00
2022-10-24T08:09:45.536Z,100.00
2022-10-24T08:12:17.338Z,100.00
2022-10-24T08:14:48.906Z,100.00
2022-10-24T08:17:21.577Z,100.00
2022-10-24T08:19:53.810Z,100.00
2022-10-24T08:25:25.406Z,100.00
2022-10-24T08:27:56.923Z,100.00
2022-10-24T08:33:18.665Z,100.00
2022-10-24T08:35:51.563Z,100.00
2022-10-24T08:38:23.237Z,100.00
2022-10-24T08:40:54.949Z,100.00
2022-10-24T08:43:26.436Z,100.00
2022-10-24T08:45:57.898Z,100.00
2022-10-24T08:48:29.411Z,100.00
2022-10-24T08:51:03.223Z,100.00
2022-10-24T08:53:43.714Z,100.00
2022-10-24T08:56:18.303Z,100.00
2022-10-24T08:58:51.826Z,100.00
2022-10-24T09:01:23.377Z,100.00
2022-10-24T09:03:56.463Z,100.00
2022-10-24T09:06:28.981Z,100.00
2022-10-24T09:09:00.448Z,100.00
2022-10-24T09:11:32.904Z,100.00
2022-10-24T09:14:04.373Z,100.00
2022-10-24T09:16:35.849Z,100.00
2022-10-24T09:19:07.318Z,100.00
2022-10-24T09:21:39.068Z,100.00
2022-10-24T09:24:10.531Z,100.00
2022-10-24T09:26:44.228Z,100.00
2022-10-24T09:29:15.772Z,100.00
2022-10-24T09:31:50.211Z,100.00
2022-10-24T09:34:21.714Z,100.00
2022-10-24T09:36:53.534Z,100.00
2022-10-24T09:39:25.066Z,100.00
2022-10-24T09:41:56.918Z,100.00
2022-10-24T09:44:28.383Z,100.00
2022-10-24T09:47:00.204Z,100.00
2022-10-24T09:49:31.709Z,100.00
2022-10-24T09:52:03.750Z,100.00
2022-10-24T09:54:35.268Z,98.56
2022-10-24T09:57:08.145Z,99.04
2022-10-24T09:59:41.856Z,99.02
2022-10-24T10:02:14.157Z,99.61
2022-10-24T10:04:45.700Z,98.13
2022-10-24T10:07:17.173Z,98.40
2022-10-24T10:09:51.603Z,98.13
2022-10-24T10:12:26.937Z,97.71
2022-10-24T10:14:58.764Z,97.46
2022-10-24T10:17:33.332Z,97.92
2022-10-24T10:20:05.174Z,97.06
2022-10-24T10:22:36.641Z,97.94
2022-10-24T10:25:08.439Z,97.06
2022-10-24T10:27:39.913Z,96.63
2022-10-24T10:30:11.806Z,96.32
2022-10-24T10:32:43.268Z,96.90
2022-10-24T10:35:15.226Z,96.73
2022-10-24T10:37:46.989Z,96.95
2022-10-24T10:40:19.004Z,95.78
2022-10-24T10:42:50.576Z,95.71
2022-10-24T10:45:22.380Z,96.08
2022-10-24T10:47:53.828Z,95.91
2022-10-24T10:50:25.610Z,96.08
2022-10-24T10:52:57.087Z,96.03
2022-10-24T10:55:29.014Z,95.17
2022-10-24T10:58:00.467Z,96.05
2022-10-24T11:00:32.424Z,95.83
2022-10-24T11:03:03.937Z,96.04
2022-10-24T11:05:35.872Z,95.61
2022-10-24T11:08:07.337Z,94.84
2022-10-24T11:10:39.156Z,94.31
2022-10-24T11:13:10.612Z,92.33
2022-10-24T11:15:42.395Z,92.88
2022-10-24T11:18:13.859Z,92.97
2022-10-24T11:20:45.879Z,92.31
2022-10-24T11:23:17.330Z,93.64
2022-10-24T11:25:49.289Z,91.95
2022-10-24T11:28:20.740Z,92.83
2022-10-24T11:30:52.536Z,92.71
2022-10-24T11:33:24.015Z,92.40
2022-10-24T11:35:55.867Z,92.79
2022-10-24T11:38:27.371Z,92.50
2022-10-24T11:41:00.244Z,93.24
2022-10-24T11:43:33.032Z,93.07
2022-10-24T11:46:04.929Z,92.62
2022-10-24T11:48:36.673Z,91.43
2022-10-24T11:51:08.157Z,92.41
2022-10-24T11:53:39.943Z,91.94
2022-10-24T11:56:12.101Z,92.27
2022-10-24T11:58:43.979Z,92.16
2022-10-24T12:01:15.482Z,91.59
2022-10-24T12:03:47.274Z,91.97
2022-10-24T12:06:18.748Z,92.04
2022-10-24T12:08:50.511Z,91.42
2022-10-24T12:11:21.996Z,90.32
2022-10-24T12:13:53.551Z,90.22
2022-10-24T12:16:25.254Z,89.38
2022-10-24T12:18:57.056Z,89.86
2022-10-24T12:21:28.557Z,89.40
2022-10-24T12:24:00.493Z,89.90
2022-10-24T12:26:31.966Z,89.69
2022-10-24T12:29:03.755Z,90.58
2022-10-24T12:31:35.252Z,90.82
2022-10-24T12:34:07.170Z,90.62
2022-10-24T12:36:38.628Z,89.69
2022-10-24T12:39:10.648Z,89.82
2022-10-24T12:41:42.185Z,88.26
2022-10-24T12:44:14.012Z,88.08
2022-10-24T12:46:45.480Z,88.52
2022-10-24T12:49:16.956Z,88.16
2022-10-24T12:51:48.451Z,87.00
2022-10-24T12:54:21.251Z,86.70
2022-10-24T12:56:52.752Z,87.15
2022-10-24T12:59:24.546Z,85.65
2022-10-24T13:01:59.943Z,86.34
2022-10-24T13:04:34.133Z,86.08
2022-10-24T13:07:05.639Z,85.35
2022-10-24T13:09:37.695Z,85.55
2022-10-24T13:12:09.166Z,85.43
2022-10-24T13:14:40.744Z,84.63
2022-10-24T13:17:12.233Z,84.28
2022-10-24T13:19:43.892Z,82.86
2022-10-24T13:22:15.350Z,83.11
2022-10-24T13:24:46.837Z,83.32
2022-10-24T13:27:18.302Z,82.15
2022-10-24T13:29:49.844Z,81.30
2022-10-24T13:32:21.947Z,82.81
2022-10-24T13:34:53.458Z,83.47
2022-10-24T13:37:24.918Z,82.68
2022-10-24T13:39:56.436Z,83.21
2022-10-24T13:42:27.961Z,83.29
2022-10-24T13:44:59.926Z,84.67
2022-10-24T13:47:31.482Z,85.88
2022-10-24T13:50:03.042Z,86.03
2022-10-24T13:52:34.607Z,85.87
2022-10-24T13:55:06.443Z,86.64
2022-10-24T13:57:38.258Z,86.81
2022-10-24T14:00:10.022Z,88.08
2022-10-24T14:02:41.715Z,87.79
2022-10-24T14:05:13.202Z,86.89
2022-10-24T14:07:44.654Z,87.79
2022-10-24T14:10:19.774Z,87.81
2022-10-24T14:12:56.864Z,88.07
2022-10-24T14:15:28.391Z,88.42
2022-10-24T14:17:59.871Z,88.27
2022-10-24T14:20:31.419Z,88.10
2022-10-24T14:23:15.827Z,87.81
2022-10-24T14:25:47.317Z,86.80
2022-10-24T14:28:20.851Z,86.48
2022-10-24T14:30:52.329Z,86.00
2022-10-24T14:33:23.849Z,86.26
2022-10-24T14:35:57.856Z,86.39
2022-10-24T14:38:29.793Z,86.73
2022-10-24T14:41:08.774Z,87.51
2022-10-24T14:43:42.494Z,87.68
2022-10-24T14:46:14.360Z,87.50
2022-10-24T14:48:46.223Z,86.51
2022-10-24T14:51:18.758Z,86.48
2022-10-24T14:53:51.365Z,86.70
2022-10-24T14:56:22.885Z,87.25
2022-10-24T14:58:54.783Z,87.92
2022-10-24T15:01:26.361Z,89.19
2022-10-24T15:03:58.234Z,89.90
2022-10-24T15:06:30.150Z,90.22
2022-10-24T15:09:04.619Z,90.60
2022-10-24T15:11:36.548Z,91.42
2022-10-24T15:14:08.491Z,92.22
2022-10-24T15:16:40.729Z,92.02
2022-10-24T15:19:12.255Z,92.69
2022-10-24T15:21:43.738Z,93.87
2022-10-24T15:24:15.774Z,94.37
2022-10-24T15:26:47.316Z,95.10
2022-10-24T15:29:19.091Z,95.22
2022-10-24T15:31:50.592Z,96.36
2022-10-24T15:34:22.565Z,96.69
2022-10-24T15:36:54.109Z,96.84
2022-10-24T15:39:25.681Z,97.50
2022-10-24T15:41:57.298Z,98.12
2022-10-24T15:44:29.280Z,98.92
2022-10-24T15:47:01.237Z,99.94
2022-10-24T15:49:33.110Z,100.00
2022-10-24T15:52:04.606Z,100.00
2022-10-24T15:54:36.106Z,100.00
2022-10-24T15:57:07.593Z,100.00
2022-10-24T15:59:39.090Z,100.00
2022-10-24T16:02:10.624Z,100.00
2022-10-24T16:04:42.656Z,99.16
2022-10-24T16:07:14.202Z,99.93
2022-10-24T16:09:46.021Z,99.51
2022-10-24T16:12:17.529Z,100.00
2022-10-24T16:14:49.339Z,100.00
2022-10-24T16:17:20.874Z,99.41
2022-10-24T16:19:52.675Z,99.29
2022-10-24T16:22:24.188Z,99.18
2022-10-24T16:24:55.717Z,99.60
2022-10-24T16:27:27.219Z,99.60
2022-10-24T16:29:58.760Z,99.64
2022-10-24T16:32:30.262Z,99.80
2022-10-24T16:35:02.056Z,99.17
2022-10-24T16:37:33.518Z,99.51
2022-10-24T16:40:05.413Z,99.55
2022-10-24T16:42:36.922Z,99.28
2022-10-24T16:45:08.765Z,99.25
2022-10-24T16:47:40.267Z,98.67
2022-10-24T16:50:12.261Z,98.10
2022-10-24T16:52:44.856Z,98.50
2022-10-24T16:55:16.898Z,98.60
2022-10-24T16:57:48.646Z,98.66
2022-10-24T17:00:20.305Z,98.99
2022-10-24T17:02:51.905Z,98.78
2022-10-24T17:05:23.858Z,99.48
2022-10-24T17:07:55.737Z,99.21
2022-10-24T17:10:27.242Z,99.31
2022-10-24T17:13:01.281Z,99.66
2022-10-24T17:15:32.767Z,99.57
2022-10-24T17:18:04.842Z,99.59
2022-10-24T17:20:36.358Z,99.79
2022-10-24T17:23:08.273Z,99.93
2022-10-24T17:25:39.775Z,100.00
2022-10-24T17:28:11.760Z,100.00
2022-10-24T17:30:43.303Z,100.00
2022-10-24T17:33:15.297Z,100.00
2022-10-24T17:35:47.312Z,100.00
2022-10-24T17:38:19.338Z,100.00
2022-10-24T17:40:50.862Z,100.00
2022-10-24T17:43:22.750Z,100.00
2022-10-24T17:45:54.245Z,100.00
2022-10-24T17:48:26.102Z,100.00
2022-10-24T17:50:57.570Z,100.00
2022-10-24T17:53:29.139Z,100.00
2022-10-24T17:56:00.655Z,100.00
2022-10-24T17:58:32.755Z,100.00
2022-10-24T18:01:04.366Z,100.00
2022-10-24T18:03:36.399Z,100.00
2022-10-24T18:06:07.979Z,100.00
2022-10-24T18:08:39.812Z,100.00
2022-10-24T18:11:12.803Z,100.00
2022-10-24T18:13:44.626Z,100.00
2022-10-24T18:16:16.614Z,100.00
2022-10-24T18:18:48.175Z,100.00
2022-10-24T18:21:19.899Z,100.00
2022-10-24T18:23:51.969Z,100.00
2022-10-24T18:26:23.509Z,100.00
2022-10-24T18:28:55.352Z,100.00
2022-10-24T18:31:26.858Z,100.00
2022-10-24T18:33:58.769Z,100.00
2022-10-24T18:36:30.277Z,100.00
2022-10-24T18:39:02.341Z,100.00
2022-10-24T18:41:34.051Z,100.00
2022-10-24T18:44:06.016Z,100.00
2022-10-24T18:46:38.302Z,100.00
2022-10-24T18:49:10.161Z,100.00
2022-10-24T18:51:41.673Z,100.00
2022-10-24T18:54:13.509Z,100.00
2022-10-24T18:56:46.638Z,100.00
2022-10-24T18:59:18.438Z,100.00
2022-10-24T19:01:50.114Z,100.00
2022-10-24T19:04:22.156Z,100.00
2022-10-24T19:06:53.660Z,100.00
2022-10-24T19:09:25.507Z,100.00
2022-10-24T19:11:56.986Z,100.00
2022-10-24T19:14:28.858Z,100.00
2022-10-24T19:17:01.393Z,100.00
2022-10-24T19:19:34.841Z,100.00
2022-10-24T19:22:06.437Z,100.00
2022-10-24T19:24:38.305Z,100.00
2022-10-24T19:27:09.863Z,100.00
2022-10-24T19:29:41.746Z,100.00
2022-10-24T19:32:13.251Z,100.00
2022-10-24T19:34:45.131Z,100.00
2022-10-24T19:37:16.629Z,100.00
2022-10-24T19:39:48.779Z,100.00
2022-10-24T19:42:20.274Z,100.00
2022-10-24T19:44:54.602Z,100.00
2022-10-24T19:47:26.294Z,100.00
2022-10-24T19:49:58.112Z,100.00
2022-10-24T19:52:29.827Z,100.00
2022-10-24T19:55:01.694Z,100.00
2022-10-24T19:57:33.539Z,100.00
2022-10-24T20:00:05.039Z,100.00
2022-10-24T20:02:36.556Z,100.00
2022-10-24T20:05:08.062Z,100.00
2022-10-24T20:07:39.906Z,100.00
2022-10-24T20:10:11.523Z,100.00
2022-10-24T20:12:43.232Z,100.00
2022-10-24T20:15:15.758Z,100.00
2022-10-24T20:17:47.559Z,100.00
2022-10-24T20:20:19.788Z,100.00
2022-10-24T20:22:51.695Z,100.00
2022-10-24T20:25:23.175Z,100.00
2022-10-24T20:27:54.720Z,100.00
2022-10-24T20:30:26.191Z,100.00
2022-10-24T20:32:57.703Z,100.00
2022-10-24T20:35:29.377Z,100.00
2022-10-24T20:38:01.149Z,100.00
2022-10-24T20:40:32.614Z,100.00
2022-10-24T20:43:05.055Z,100.00
2022-10-24T20:45:36.888Z,100.00
2022-10-24T20:48:08.718Z,100.00
2022-10-24T20:50:40.168Z,100.00
2022-10-24T20:53:11.909Z,100.00
2022-10-24T20:55:44.634Z,100.00
2022-10-24T20:58:16.658Z,100.00
2022-10-24T21:00:48.164Z,100.00
2022-10-24T21:03:19.941Z,100.00
2022-10-24T21:05:51.407Z,100.00
2022-10-24T21:08:23.193Z,100.00
2022-10-24T21:10:54.700Z,100.00
2022-10-24T21:13:26.463Z,100.00
2022-10-24T21:15:57.924Z,100.00
2022-10-24T21:18:29.850Z,100.00
2022-10-24T21:21:01.306Z,100.00
2022-10-24T21:23:33.268Z,100.00
2022-10-24T21:26:04.765Z,100.00
2022-10-24T21:28:36.243Z,100.00
2022-10-24T21:31:07.750Z,100.00
2022-10-24T21:33:41.568Z,100.00
2022-10-24T21:36:13.047Z,100.00
2022-10-24T21:38:44.813Z,100.00
2022-10-24T21:41:16.327Z,100.00
2022-10-24T21:43:48.258Z,100.00
2022-10-24T21:46:19.738Z,100.00
2022-10-24T21:48:51.581Z,100.00
2022-10-24T21:51:23.064Z,100.00
2022-10-24T21:53:54.874Z,100.00
2022-10-24T21:56:26.359Z,100.00
2022-10-24T22:01:38.112Z,100.00
2022-10-24T22:04:10.050Z,100.00
2022-10-24T22:06:41.529Z,100.00
2022-10-24T22:09:13.371Z,100.00
2022-10-24T22:11:44.842Z,100.00
2022-10-24T22:14:16.623Z,100.00
2022-10-24T22:16:48.089Z,100.00
2022-10-24T22:19:19.875Z,100.00
2022-10-24T22:21:51.418Z,100.00
2022-10-24T22:24:22.967Z,100.00
2022-10-24T22:26:54.444Z,100.00
2022-10-24T22:29:26.357Z,100.00
2022-10-24T22:31:57.846Z,100.00
2022-10-24T22:34:29.803Z,100.00
2022-10-24T22:37:01.252Z,100.00
2022-10-24T22:39:33.013Z,100.00
2022-10-24T22:42:04.472Z,100.00
2022-10-24T22:44:35.978Z,100.00
2022-10-24T22:47:07.435Z,100.00
2022-10-24T22:49:39.222Z,100.00
2022-10-24T22:52:11.169Z,100.00
2022-10-24T22:54:42.936Z,100.00
2022-10-24T22:57:14.479Z,100.00
2022-10-24T22:59:46.370Z,100.00
2022-10-24T23:02:17.957Z,100.00
2022-10-24T23:04:49.803Z,100.00
2022-10-24T23:07:23.688Z,100.00
2022-10-24T23:09:58.363Z,100.00
2022-10-24T23:12:30.153Z,100.00
2022-10-24T23:15:01.640Z,100.00
2022-10-24T23:17:33.620Z,100.00
2022-10-24T23:20:05.070Z,100.00
2022-10-24T23:22:36.863Z,100.00
2022-10-24T23:25:08.339Z,100.00
2022-10-24T23:27:40.116Z,100.00
2022-10-24T23:30:11.586Z,100.00
2022-10-24T23:32:43.649Z,100.00
2022-10-24T23:35:15.301Z,100.00
2022-10-24T23:37:47.229Z,100.00
2022-10-24T23:40:18.683Z,100.00
2022-10-24T23:42:50.475Z,100.00
2022-10-24T23:45:21.942Z,100.00
2022-10-24T23:47:53.782Z,100.00
2022-10-24T23:50:25.310Z,100.00
2022-10-24T23:52:57.086Z,100.00
2022-10-24T23:55:28.550Z,100.00
2022-10-24T23:58:01.403Z,100.00
